createdAt,value
2022-10-09T00:01:14.428Z,96372.84
2022-10-09T00:03:44.175Z,96375.81
2022-10-09T00:06:15.836Z,96368.03
2022-10-09T00:08:44.603Z,96370.84
2022-10-09T00:11:15.162Z,96370.00
2022-10-09T00:13:44.757Z,96373.47
2022-10-09T00:16:15.049Z,96366.88
2022-10-09T00:18:43.340Z,96367.88
2022-10-09T00:21:20.304Z,96367.34
2022-10-09T00:23:48.884Z,96371.31
2022-10-09T00:26:17.051Z,96362.56
2022-10-09T00:28:46.936Z,96354.28
2022-10-09T00:31:15.813Z,96351.81
2022-10-09T00:33:43.805Z,96355.59
2022-10-09T00:36:14.012Z,96349.69
2022-10-09T00:38:42.424Z,96347.22
2022-10-09T00:41:14.068Z,96346.50
2022-10-09T00:43:46.665Z,96354.59
2022-10-09T00:46:28.008Z,96345.03
2022-10-09T00:49:02.383Z,96341.75
2022-10-09T00:51:32.535Z,96338.44
2022-10-09T00:54:01.249Z,96342.38
2022-10-09T00:56:29.460Z,96338.25
2022-10-09T00:58:59.709Z,96338.41
2022-10-09T01:01:28.394Z,96319.16
2022-10-09T01:03:56.169Z,96318.34
2022-10-09T01:06:34.305Z,96318.47
2022-10-09T01:09:07.241Z,96318.09
2022-10-09T01:11:43.153Z,96324.34
2022-10-09T01:14:18.890Z,96318.78
2022-10-09T01:16:55.031Z,96311.19
2022-10-09T01:19:36.499Z,96313.16
2022-10-09T01:22:19.745Z,96310.84
2022-10-09T01:24:53.577Z,96304.94
2022-10-09T01:27:25.325Z,96299.97
2022-10-09T01:29:57.594Z,96304.72
2022-10-09T01:32:29.386Z,96306.72
2022-10-09T01:34:58.450Z,96303.91
2022-10-09T01:37:28.139Z,96304.91
2022-10-09T01:39:56.153Z,96300.44
2022-10-09T01:42:28.282Z,96298.13
2022-10-09T01:44:56.718Z,96297.63
2022-10-09T01:47:25.009Z,96284.94
2022-10-09T01:49:59.714Z,96285.09
2022-10-09T01:52:41.547Z,96276.19
2022-10-09T01:55:26.770Z,96277.19
2022-10-09T01:58:01.309Z,96274.41
2022-10-09T02:00:32.003Z,96268.28
2022-10-09T02:02:59.971Z,96267.81
2022-10-09T02:05:30.393Z,96273.91
2022-10-09T02:07:59.402Z,96276.88
2022-10-09T02:10:27.713Z,96271.91
2022-10-09T02:12:59.416Z,96275.53
2022-10-09T02:15:32.133Z,96255.63
2022-10-09T02:18:06.183Z,96262.06
2022-10-09T02:20:37.975Z,96257.09
2022-10-09T02:23:09.085Z,96257.56
2022-10-09T02:25:37.312Z,96263.00
2022-10-09T02:28:07.963Z,96259.69
2022-10-09T02:30:45.401Z,96257.06
2022-10-09T02:33:13.129Z,96253.09
2022-10-09T02:35:41.891Z,96258.69
2022-10-09T02:38:09.581Z,96252.59
2022-10-09T02:40:37.914Z,96248.16
2022-10-09T02:43:06.908Z,96247.66
2022-10-09T02:45:34.902Z,96247.47
2022-10-09T02:48:02.561Z,96242.34
2022-10-09T02:50:30.841Z,96237.25
2022-10-09T02:52:58.617Z,96234.28
2022-10-09T02:55:26.561Z,96245.78
2022-10-09T02:57:54.241Z,96242.13
2022-10-09T03:00:23.637Z,96245.75
2022-10-09T03:02:51.744Z,96231.91
2022-10-09T03:05:20.478Z,96234.88
2022-10-09T03:07:51.477Z,96228.13
2022-10-09T03:10:20.473Z,96226.78
2022-10-09T03:12:48.572Z,96231.22
2022-10-09T03:15:17.817Z,96226.28
2022-10-09T03:17:46.996Z,96224.63
2022-10-09T03:20:14.651Z,96209.16
2022-10-09T03:22:42.408Z,96221.63
2022-10-09T03:25:10.462Z,96217.34
2022-10-09T03:27:38.194Z,96224.75
2022-10-09T03:30:07.406Z,96222.28
2022-10-09T03:32:35.107Z,96225.91
2022-10-09T03:35:04.851Z,96233.09
2022-10-09T03:37:32.646Z,96228.66
2022-10-09T03:40:00.509Z,96220.63
2022-10-09T03:42:28.216Z,96220.47
2022-10-09T03:44:57.850Z,96219.81
2022-10-09T03:47:25.520Z,96220.94
2022-10-09T03:49:53.326Z,96224.53
2022-10-09T03:52:22.347Z,96228.16
2022-10-09T03:54:50.118Z,96232.88
2022-10-09T03:57:17.767Z,96234.69
2022-10-09T03:59:45.749Z,96230.38
2022-10-09T04:02:13.426Z,96232.34
2022-10-09T04:04:41.554Z,96231.84
2022-10-09T04:07:09.235Z,96222.16
2022-10-09T04:09:38.218Z,96223.78
2022-10-09T04:12:06.341Z,96220.50
2022-10-09T04:14:33.996Z,96222.47
2022-10-09T04:17:01.966Z,96221.28
2022-10-09T04:19:29.616Z,96220.28
2022-10-09T04:21:57.587Z,96228.34
2022-10-09T04:24:25.239Z,96228.66
2022-10-09T04:26:54.799Z,96226.16
2022-10-09T04:29:22.438Z,96227.31
2022-10-09T04:31:50.748Z,96216.78
2022-10-09T04:34:18.457Z,96218.69
2022-10-09T04:36:46.110Z,96220.72
2022-10-09T04:39:13.887Z,96222.03
2022-10-09T04:41:41.849Z,96216.13
2022-10-09T04:44:10.998Z,96207.25
2022-10-09T04:46:39.047Z,96209.06
2022-10-09T04:49:06.930Z,96208.25
2022-10-09T04:51:34.879Z,96209.06
2022-10-09T04:54:02.525Z,96197.72
2022-10-09T04:56:30.826Z,96202.97
2022-10-09T04:58:58.674Z,96206.59
2022-10-09T05:01:32.078Z,96199.53
2022-10-09T05:04:03.346Z,96197.72
2022-10-09T05:06:31.465Z,96201.63
2022-10-09T05:08:59.196Z,96183.38
2022-10-09T05:11:28.597Z,96194.72
2022-10-09T05:13:57.500Z,96191.13
2022-10-09T05:16:29.192Z,96192.25
2022-10-09T05:18:58.388Z,96194.69
2022-10-09T05:21:28.031Z,96199.03
2022-10-09T05:23:56.812Z,96199.31
2022-10-09T05:26:28.453Z,96196.03
2022-10-09T05:28:56.150Z,96202.66
2022-10-09T05:31:25.390Z,96213.16
2022-10-09T05:33:54.595Z,96202.31
2022-10-09T05:36:22.853Z,96196.41
2022-10-09T05:38:50.942Z,96197.59
2022-10-09T05:41:19.865Z,96184.28
2022-10-09T05:43:49.522Z,96184.28
2022-10-09T05:46:19.683Z,96185.13
2022-10-09T05:48:52.930Z,96188.44
2022-10-09T05:51:23.796Z,96179.78
2022-10-09T05:53:51.953Z,96182.78
2022-10-09T05:56:21.534Z,96192.97
2022-10-09T05:58:51.853Z,96191.53
2022-10-09T06:01:19.986Z,96192.03
2022-10-09T06:03:50.780Z,96194.38
2022-10-09T06:06:20.783Z,96204.56
2022-10-09T06:08:50.796Z,96191.13
2022-10-09T06:11:20.582Z,96199.38
2022-10-09T06:13:49.315Z,96197.94
2022-10-09T06:16:18.976Z,96205.34
2022-10-09T06:18:49.520Z,96196.31
2022-10-09T06:21:17.828Z,96195.53
2022-10-09T06:23:45.710Z,96195.25
2022-10-09T06:26:15.039Z,96198.69
2022-10-09T06:28:42.798Z,96203.25
2022-10-09T06:31:12.437Z,96200.72
2022-10-09T06:33:42.218Z,96203.88
2022-10-09T06:36:12.087Z,96209.47
2022-10-09T06:38:40.638Z,96208.84
2022-10-09T06:41:10.936Z,96212.13
2022-10-09T06:43:40.698Z,96216.56
2022-10-09T06:46:10.414Z,96217.06
2022-10-09T06:48:39.649Z,96217.44
2022-10-09T06:51:09.869Z,96215.16
2022-10-09T06:53:38.291Z,96227.66
2022-10-09T06:56:08.609Z,96216.03
2022-10-09T06:58:36.433Z,96218.50
2022-10-09T07:01:08.629Z,96211.91
2022-10-09T07:03:37.543Z,96211.59
2022-10-09T07:06:10.616Z,96208.31
2022-10-09T07:08:38.758Z,96216.59
2022-10-09T07:11:14.901Z,96225.00
2022-10-09T07:13:43.418Z,96211.03
2022-10-09T07:16:13.315Z,96220.59
2022-10-09T07:18:41.182Z,96219.63
2022-10-09T07:21:11.048Z,96208.09
2022-10-09T07:23:39.041Z,96216.69
2022-10-09T07:26:13.681Z,96219.97
2022-10-09T07:28:42.635Z,96218.34
2022-10-09T07:31:13.050Z,96214.06
2022-10-09T07:33:41.594Z,96210.09
2022-10-09T07:36:11.683Z,96207.44
2022-10-09T07:38:39.341Z,96206.09
2022-10-09T07:41:08.682Z,96209.38
2022-10-09T07:43:37.638Z,96213.84
2022-10-09T07:46:07.760Z,96213.69
2022-10-09T07:48:37.602Z,96224.06
2022-10-09T07:51:10.026Z,96223.69
2022-10-09T07:53:39.263Z,96223.19
2022-10-09T07:56:07.393Z,96219.53
2022-10-09T07:58:36.014Z,96217.50
2022-10-09T08:01:07.322Z,96216.28
2022-10-09T08:03:37.693Z,96218.41
2022-10-09T08:06:06.310Z,96213.72
2022-10-09T08:08:34.346Z,96218.88
2022-10-09T08:11:02.119Z,96221.25
2022-10-09T08:13:30.425Z,96212.91
2022-10-09T08:16:00.032Z,96212.59
2022-10-09T08:18:28.442Z,96204.94
2022-10-09T08:21:01.868Z,96209.03
2022-10-09T08:23:30.608Z,96200.91
2022-10-09T08:25:58.368Z,96205.41
2022-10-09T08:28:26.481Z,96206.00
2022-10-09T08:30:54.273Z,96194.69
2022-10-09T08:33:23.795Z,96197.91
2022-10-09T08:35:52.104Z,96199.84
2022-10-09T08:38:45.449Z,96193.31
2022-10-09T08:41:14.578Z,96187.94
2022-10-09T08:43:46.817Z,96193.81
2022-10-09T08:46:22.443Z,96183.44
2022-10-09T08:48:51.613Z,96175.97
2022-10-09T08:51:25.017Z,96180.50
2022-10-09T08:54:00.417Z,96182.78
2022-10-09T08:56:30.087Z,96184.34
2022-10-09T08:58:58.538Z,96177.19
2022-10-09T09:01:33.987Z,96183.78
2022-10-09T09:04:28.214Z,96167.13
2022-10-09T09:07:03.544Z,96173.19
2022-10-09T09:09:43.289Z,96171.28
2022-10-09T09:12:17.622Z,96164.84
2022-10-09T09:15:02.090Z,96160.66
2022-10-09T09:17:40.021Z,96149.66
2022-10-09T09:20:16.271Z,96155.38
2022-10-09T09:22:48.786Z,96149.72
2022-10-09T09:25:22.756Z,96151.31
2022-10-09T09:27:51.260Z,96148.56
2022-10-09T09:30:22.386Z,96145.88
2022-10-09T09:32:57.923Z,96150.25
2022-10-09T09:35:33.368Z,96145.41
2022-10-09T09:38:02.257Z,96140.09
2022-10-09T09:40:37.616Z,96142.00
2022-10-09T09:43:16.148Z,96141.84
2022-10-09T09:45:44.787Z,96141.41
2022-10-09T09:48:17.652Z,96130.38
2022-10-09T09:50:53.103Z,96132.06
2022-10-09T09:53:36.070Z,96120.63
2022-10-09T09:56:05.867Z,96127.94
2022-10-09T09:58:36.675Z,96126.78
2022-10-09T10:01:06.451Z,96123.56
2022-10-09T10:03:35.777Z,96117.66
2022-10-09T10:06:03.478Z,96122.75
2022-10-09T10:08:34.026Z,96122.59
2022-10-09T10:11:04.276Z,96110.94
2022-10-09T10:13:38.375Z,96115.38
2022-10-09T10:16:09.249Z,96108.91
2022-10-09T10:18:41.343Z,96108.06
2022-10-09T10:21:14.043Z,96098.66
2022-10-09T10:23:45.282Z,96093.50
2022-10-09T10:26:25.806Z,96096.00
2022-10-09T10:29:01.893Z,96097.38
2022-10-09T10:31:40.032Z,96098.19
2022-10-09T10:34:16.918Z,96087.53
2022-10-09T10:37:02.517Z,96085.31
2022-10-09T10:39:40.870Z,96080.19
2022-10-09T10:42:16.518Z,96085.13
2022-10-09T10:44:53.697Z,96078.97
2022-10-09T10:47:24.590Z,96081.41
2022-10-09T10:49:52.870Z,96075.50
2022-10-09T10:52:38.946Z,96074.09
2022-10-09T10:55:22.354Z,96081.47
2022-10-09T10:57:59.503Z,96070.56
2022-10-09T11:00:29.728Z,96079.81
2022-10-09T11:03:08.386Z,96084.31
2022-10-09T11:05:47.561Z,96079.84
2022-10-09T11:08:28.271Z,96079.19
2022-10-09T11:11:04.176Z,96079.41
2022-10-09T11:13:34.942Z,96064.22
2022-10-09T11:16:19.632Z,96068.72
2022-10-09T11:19:00.739Z,96060.53
2022-10-09T11:21:44.657Z,96057.25
2022-10-09T11:24:49.371Z,96049.66
2022-10-09T11:27:20.786Z,96040.84
2022-10-09T11:29:54.467Z,96042.81
2022-10-09T11:32:29.904Z,96040.78
2022-10-09T11:35:04.418Z,96041.22
2022-10-09T11:37:35.785Z,96039.81
2022-10-09T11:40:07.393Z,96037.59
2022-10-09T11:42:35.304Z,96027.09
2022-10-09T11:45:18.050Z,96032.25
2022-10-09T11:47:56.273Z,96039.63
2022-10-09T11:50:37.108Z,96035.72
2022-10-09T11:53:09.970Z,96029.72
2022-10-09T11:55:38.591Z,96023.06
2022-10-09T11:58:22.201Z,96029.97
2022-10-09T12:00:54.186Z,96020.03
2022-10-09T12:03:33.440Z,96014.66
2022-10-09T12:06:08.605Z,96015.47
2022-10-09T12:08:37.640Z,96000.66
2022-10-09T12:11:13.261Z,95994.78
2022-10-09T12:13:51.722Z,95995.91
2022-10-09T12:16:36.715Z,96003.03
2022-10-09T12:19:12.987Z,95986.56
2022-10-09T12:21:47.931Z,95978.22
2022-10-09T12:24:17.950Z,95982.19
2022-10-09T12:26:47.039Z,95985.75
2022-10-09T12:29:24.318Z,95976.91
2022-10-09T12:31:57.033Z,95976.25
2022-10-09T12:34:31.283Z,95973.34
2022-10-09T12:37:13.396Z,95968.00
2022-10-09T12:39:42.227Z,95971.28
2022-10-09T12:42:18.286Z,95971.41
2022-10-09T12:44:47.494Z,95973.00
2022-10-09T12:47:21.323Z,95964.75
2022-10-09T12:49:58.511Z,95960.94
2022-10-09T12:52:26.859Z,95959.94
2022-10-09T12:54:54.688Z,95958.41
2022-10-09T12:57:24.067Z,95950.53
2022-10-09T12:59:55.483Z,95952.88
2022-10-09T13:02:23.348Z,95948.44
2022-10-09T13:05:02.349Z,95943.69
2022-10-09T13:07:32.444Z,95954.81
2022-10-09T13:10:08.441Z,95946.56
2022-10-09T13:12:36.632Z,95945.69
2022-10-09T13:15:06.028Z,95950.31
2022-10-09T13:17:36.676Z,95950.75
2022-10-09T13:20:25.794Z,95940.25
2022-10-09T13:22:55.155Z,95935.78
2022-10-09T13:25:24.021Z,95934.31
2022-10-09T13:27:52.263Z,95938.94
2022-10-09T13:30:22.571Z,95931.69
2022-10-09T13:32:50.742Z,95936.50
2022-10-09T13:35:20.257Z,95921.69
2022-10-09T13:37:48.274Z,95919.03
2022-10-09T13:40:22.083Z,95926.97
2022-10-09T13:42:54.128Z,95927.97
2022-10-09T13:45:21.834Z,95918.72
2022-10-09T13:47:49.856Z,95918.84
2022-10-09T13:50:20.067Z,95908.50
2022-10-09T13:52:48.025Z,95911.97
2022-10-09T13:55:17.486Z,95901.31
2022-10-09T13:57:45.227Z,95892.75
2022-10-09T14:00:14.741Z,95896.91
2022-10-09T14:02:42.607Z,95895.25
2022-10-09T14:05:11.026Z,95892.03
2022-10-09T14:07:40.125Z,95883.91
2022-10-09T14:10:08.920Z,95884.69
2022-10-09T14:12:36.914Z,95873.22
2022-10-09T14:15:05.595Z,95884.69
2022-10-09T14:17:33.388Z,95883.91
2022-10-09T14:20:01.298Z,95890.78
2022-10-09T14:22:28.981Z,95888.09
2022-10-09T14:24:58.383Z,95886.84
2022-10-09T14:27:26.359Z,95886.63
2022-10-09T14:29:56.734Z,95876.56
2022-10-09T14:32:25.231Z,95878.94
2022-10-09T14:34:53.037Z,95884.53
2022-10-09T14:37:40.037Z,95883.13
2022-10-09T14:40:11.357Z,95874.34
2022-10-09T14:42:39.967Z,95881.91
2022-10-09T14:45:09.823Z,95877.38
2022-10-09T14:47:38.149Z,95887.22
2022-10-09T14:50:06.762Z,95866.69
2022-10-09T14:52:34.962Z,95869.72
2022-10-09T14:55:03.017Z,95867.94
2022-10-09T14:57:35.535Z,95873.75
2022-10-09T15:00:05.333Z,95867.16
2022-10-09T15:02:33.094Z,95867.78
2022-10-09T15:05:00.828Z,95869.22
2022-10-09T15:07:28.524Z,95862.69
2022-10-09T15:09:57.205Z,95857.34
2022-10-09T15:12:25.145Z,95857.38
2022-10-09T15:14:54.637Z,95854.34
2022-10-09T15:17:22.430Z,95844.28
2022-10-09T15:19:50.722Z,95846.72
2022-10-09T15:22:18.385Z,95849.63
2022-10-09T15:24:48.271Z,95843.09
2022-10-09T15:27:15.966Z,95843.09
2022-10-09T15:29:44.380Z,95842.75
2022-10-09T15:32:13.425Z,95837.59
2022-10-09T15:34:41.685Z,95829.59
2022-10-09T15:37:09.418Z,95830.84
2022-10-09T15:39:37.798Z,95826.78
2022-10-09T15:42:05.950Z,95823.09
2022-10-09T15:44:33.694Z,95818.16
2022-10-09T15:47:01.749Z,95807.94
2022-10-09T15:49:30.766Z,95806.94
2022-10-09T15:51:58.835Z,95802.88
2022-10-09T15:54:27.756Z,95806.41
2022-10-09T15:56:55.618Z,95808.44
2022-10-09T15:59:23.290Z,95806.22
2022-10-09T16:01:51.479Z,95816.25
2022-10-09T16:04:19.338Z,95810.72
2022-10-09T16:06:49.188Z,95805.63
2022-10-09T16:09:17.222Z,95806.47
2022-10-09T16:11:45.539Z,95808.72
2022-10-09T16:14:13.281Z,95806.09
2022-10-09T16:16:41.322Z,95806.94
2022-10-09T16:19:09.036Z,95815.94
2022-10-09T16:21:37.042Z,95810.84
2022-10-09T16:24:06.512Z,95809.44
2022-10-09T16:26:34.603Z,95808.59
2022-10-09T16:29:02.309Z,95805.94
2022-10-09T16:31:35.034Z,95812.72
2022-10-09T16:34:03.838Z,95800.03
2022-10-09T16:36:32.378Z,95791.44
2022-10-09T16:39:00.310Z,95796.38
2022-10-09T16:41:30.001Z,95800.44
2022-10-09T16:44:00.138Z,95794.75
2022-10-09T16:46:31.494Z,95796.81
2022-10-09T16:49:00.294Z,95793.13
2022-10-09T16:51:30.862Z,95797.63
2022-10-09T16:54:00.082Z,95802.94
2022-10-09T16:56:31.347Z,95794.75
2022-10-09T16:59:00.591Z,95783.75
2022-10-09T17:01:29.723Z,95791.91
2022-10-09T17:03:58.200Z,95795.59
2022-10-09T17:06:27.154Z,95785.38
2022-10-09T17:08:56.909Z,95796.03
2022-10-09T17:11:25.770Z,95789.69
2022-10-09T17:13:56.699Z,95788.28
2022-10-09T17:16:26.849Z,95793.59
2022-10-09T17:18:54.968Z,95790.50
2022-10-09T17:21:22.768Z,95790.31
2022-10-09T17:23:54.155Z,95786.22
2022-10-09T17:26:23.391Z,95790.31
2022-10-09T17:28:51.485Z,95796.88
2022-10-09T17:31:23.712Z,95797.03
2022-10-09T17:33:55.518Z,95792.75
2022-10-09T17:36:26.005Z,95791.09
2022-10-09T17:38:54.153Z,95792.75
2022-10-09T17:41:24.801Z,95804.56
2022-10-09T17:43:52.889Z,95805.00
2022-10-09T17:46:22.787Z,95794.78
2022-10-09T17:48:53.426Z,95801.72
2022-10-09T17:51:25.252Z,95812.94
2022-10-09T17:53:55.102Z,95807.84
2022-10-09T17:56:22.850Z,95802.53
2022-10-09T17:58:50.550Z,95803.34
2022-10-09T18:01:19.231Z,95805.78
2022-10-09T18:03:48.270Z,95788.66
2022-10-09T18:06:18.865Z,95787.44
2022-10-09T18:08:46.891Z,95782.13
2022-10-09T18:11:17.043Z,95776.81
2022-10-09T18:13:46.297Z,95782.94
2022-10-09T18:16:17.096Z,95784.16
2022-10-09T18:18:45.591Z,95791.91
2022-10-09T18:21:17.618Z,95775.38
2022-10-09T18:23:45.958Z,95783.72
2022-10-09T18:26:16.504Z,95776.38
2022-10-09T18:28:47.577Z,95786.16
2022-10-09T18:31:19.815Z,95780.47
2022-10-09T18:33:47.979Z,95782.28
2022-10-09T18:36:20.348Z,95780.06
2022-10-09T18:38:49.124Z,95770.25
2022-10-09T18:41:18.437Z,95767.38
2022-10-09T18:43:47.418Z,95769.81
2022-10-09T18:46:15.967Z,95765.34
2022-10-09T18:48:44.405Z,95773.06
2022-10-09T18:51:15.844Z,95767.75
2022-10-09T18:53:49.678Z,95762.03
2022-10-09T18:56:19.883Z,95757.16
2022-10-09T18:58:50.053Z,95754.28
2022-10-09T19:01:17.798Z,95754.06
2022-10-09T19:03:49.090Z,95751.81
2022-10-09T19:06:18.210Z,95745.28
2022-10-09T19:08:47.824Z,95757.94
2022-10-09T19:11:15.532Z,95749.75
2022-10-09T19:13:44.274Z,95746.84
2022-10-09T19:16:12.303Z,95749.91
2022-10-09T19:18:40.414Z,95749.91
2022-10-09T19:21:12.652Z,95746.66
2022-10-09T19:23:40.407Z,95743.59
2022-10-09T19:26:09.477Z,95749.88
2022-10-09T19:28:38.885Z,95746.41
2022-10-09T19:31:07.675Z,95744.78
2022-10-09T19:33:36.374Z,95739.88
2022-10-09T19:36:04.713Z,95738.88
2022-10-09T19:38:32.920Z,95735.59
2022-10-09T19:41:04.541Z,95737.25
2022-10-09T19:43:34.759Z,95731.13
2022-10-09T19:46:04.776Z,95731.53
2022-10-09T19:48:33.032Z,95736.63
2022-10-09T19:51:00.727Z,95732.97
2022-10-09T19:53:28.625Z,95734.59
2022-10-09T19:55:56.310Z,95740.72
2022-10-09T19:58:24.480Z,95743.16
2022-10-09T20:00:53.720Z,95728.09
2022-10-09T20:03:21.599Z,95734.63
2022-10-09T20:05:49.290Z,95734.19
2022-10-09T20:08:17.033Z,95734.19
2022-10-09T20:10:44.811Z,95740.50
2022-10-09T20:13:14.363Z,95740.50
2022-10-09T20:15:42.903Z,95741.94
2022-10-09T20:18:12.022Z,95735.81
2022-10-09T20:20:40.402Z,95743.13
2022-10-09T20:23:08.225Z,95745.97
2022-10-09T20:25:35.943Z,95738.25
2022-10-09T20:28:03.707Z,95736.63
2022-10-09T20:30:31.701Z,95735.19
2022-10-09T20:32:59.764Z,95737.25
2022-10-09T20:35:29.125Z,95735.00
2022-10-09T20:37:56.830Z,95734.34
2022-10-09T20:40:24.507Z,95728.88
2022-10-09T20:42:52.685Z,95738.63
2022-10-09T20:45:20.793Z,95735.00
2022-10-09T20:47:49.970Z,95732.97
2022-10-09T20:50:17.677Z,95735.97
2022-10-09T20:52:47.183Z,95725.22
2022-10-09T20:55:15.061Z,95722.34
2022-10-09T20:57:42.783Z,95720.72
2022-10-09T21:00:11.850Z,95722.72
2022-10-09T21:02:39.889Z,95718.06
2022-10-09T21:05:08.390Z,95722.72
2022-10-09T21:07:36.395Z,95722.34
2022-10-09T21:10:06.185Z,95716.25
2022-10-09T21:12:34.243Z,95725.88
2022-10-09T21:15:01.935Z,95720.13
2022-10-09T21:17:29.646Z,95718.69
2022-10-09T21:19:57.994Z,95720.50
2022-10-09T21:22:26.415Z,95719.69
2022-10-09T21:24:54.140Z,95706.66
2022-10-09T21:27:23.542Z,95710.94
2022-10-09T21:29:51.209Z,95708.69
2022-10-09T21:32:19.248Z,95711.34
2022-10-09T21:34:47.114Z,95710.31
2022-10-09T21:37:21.575Z,95706.25
2022-10-09T21:39:49.939Z,95711.94
2022-10-09T21:42:17.983Z,95707.66
2022-10-09T21:44:47.038Z,95710.31
2022-10-09T21:47:18.424Z,95710.72
2022-10-09T21:49:46.133Z,95716.03
2022-10-09T21:52:14.650Z,95711.56
2022-10-09T21:54:42.313Z,95704.25
2022-10-09T21:57:10.039Z,95702.22
2022-10-09T21:59:38.324Z,95710.78
2022-10-09T22:02:07.407Z,95710.78
2022-10-09T22:04:35.577Z,95714.03
2022-10-09T22:07:03.254Z,95716.88
2022-10-09T22:09:30.975Z,95714.69
2022-10-09T22:12:00.246Z,95710.00
2022-10-09T22:14:28.009Z,95710.38
2022-10-09T22:16:55.696Z,95713.00
2022-10-09T22:19:24.726Z,95715.66
2022-10-09T22:21:52.673Z,95709.97
2022-10-09T22:24:23.814Z,95703.44
2022-10-09T22:26:55.437Z,95705.06
2022-10-09T22:29:23.639Z,95715.88
2022-10-09T22:31:51.343Z,95704.88
2022-10-09T22:34:19.357Z,95699.38
2022-10-09T22:36:48.419Z,95702.22
2022-10-09T22:39:16.453Z,95701.81
2022-10-09T22:41:44.175Z,95698.13
2022-10-09T22:44:13.437Z,95694.47
2022-10-09T22:46:44.363Z,95702.63
2022-10-09T22:49:14.816Z,95696.09
2022-10-09T22:51:43.198Z,95698.75
2022-10-09T22:54:13.757Z,95700.19
2022-10-09T22:56:45.258Z,95698.53
2022-10-09T22:59:15.709Z,95700.19
2022-10-09T23:01:48.243Z,95699.56
2022-10-09T23:04:18.114Z,95707.72
2022-10-09T23:06:46.758Z,95708.31
2022-10-09T23:09:16.385Z,95706.69
2022-10-09T23:11:44.630Z,95706.25
2022-10-09T23:14:13.514Z,95704.25
2022-10-09T23:16:41.508Z,95697.94
2022-10-09T23:19:10.146Z,95698.13
2022-10-09T23:21:39.285Z,95707.91
2022-10-09T23:24:08.134Z,95704.25
2022-10-09T23:26:38.199Z,95700.59
2022-10-09T23:29:08.489Z,95698.94
2022-10-09T23:31:36.962Z,95703.22
2022-10-09T23:34:05.846Z,95701.41
2022-10-09T23:36:33.948Z,95701.19
2022-10-09T23:39:03.199Z,95707.50
2022-10-09T23:41:31.386Z,95710.38
2022-10-09T23:44:00.502Z,95709.13
2022-10-09T23:46:30.166Z,95704.88
2022-10-09T23:48:58.617Z,95705.88
2022-10-09T23:51:27.791Z,95709.53
2022-10-09T23:53:56.767Z,95706.09
2022-10-09T23:56:26.549Z,95710.72
2022-10-09T23:58:56.389Z,95707.91
